Weather reports worldwide

Advertisment
Zinnwald-Georgenfeld, Germany (10582): temperature & dewpoint: 16.03.2019 18:00:00 - 22.03.2019 18:00:00 (CET)Zinnwald-Georgenfeld, Germany (10582): temperature 5cm & temperature -5cm: 16.03.2019 18:00:00 - 22.03.2019 18:00:00 (CET)Zinnwald-Georgenfeld, Germany (10582): temperature -20cm & temperature -100cm: 16.03.2019 18:00:00 - 22.03.2019 18:00:00 (CET)Zinnwald-Georgenfeld, Germany (10582): wind speed & gusts: 16.03.2019 18:00:00 - 22.03.2019 18:00:00 (CET)Zinnwald-Georgenfeld, Germany (10582): wind direction: 16.03.2019 18:00:00 - 22.03.2019 18:00:00 (CET)Zinnwald-Georgenfeld, Germany (10582): visibility: 16.03.2019 18:00:00 - 22.03.2019 18:00:00 (CET)Zinnwald-Georgenfeld, Germany (10582): sunshine duration: 16.03.2019 18:00:00 - 22.03.2019 18:00:00 (CET)Zinnwald-Georgenfeld, Germany (10582): precipitation: 16.03.2019 18:00:00 - 22.03.2019 18:00:00 (CET)
Date & Time tt [°C] td [°C] tt 5cm [°C] tt -5cm [°C] tt -20cm [°C] tt -100cm [°C] ff [km/h] ff [kn] fx [km/h] fx [kn] dd vv [km] sd [min] rr [mm]
22.03.2019 18:00:00 11,1 4,6 -0,2 0,2 0,6 3,5 8 4 13 7 S 13 60 0,0
22.03.2019 17:00:00 12,2 4,3 -0,2 0,2 0,6 3,5 10 5 16 9 S 19 60 0,0
22.03.2019 16:00:00 12,9 4,5 -0,2 0,2 0,6 3,5 10 5 18 10 S 13 60 0,0
22.03.2019 15:00:00 13,1 4,8 -0,2 0,2 0,7 3,5 10 5 21 11 S 12 60 0,0
22.03.2019 14:00:00 13,1 5,4 -0,2 0,2 0,8 3,5 8 5 18 10 S 9 60 0,0
22.03.2019 13:00:00 12,3 5,7 -0,2 0,2 0,8 3,5 10 6 18 10 SSE 8 60 0,0
22.03.2019 12:00:00 11,2 5,9 -0,1 0,3 0,7 3,5 11 6 22 12 E 8 60 0,0
22.03.2019 11:00:00 11,3 5,3 -0,1 0,3 0,7 3,5 7 4 14 8 SE 11 60 0,0
22.03.2019 10:00:00 10,2 5,4 -0,1 0,3 0,7 3,5 8 5 17 9 ENE 12 60 0,0
22.03.2019 09:00:00 10,8 4,9 -0,1 0,3 0,7 3,5 6 3 10 5 E 19 60 0,0
22.03.2019 08:00:00 8,0 4,9 -0,1 0,2 0,7 3,5 6 3 8 4 S 9 60 0,0
22.03.2019 07:00:00 6,8 4,7 -0,1 0,2 0,7 3,5 6 3 8 4 SE 10 19 0,0
22.03.2019 06:00:00 5,5 3,6 -0,1 0,2 0,7 3,5 8 4 10 5 ENE 9 0 0,0
22.03.2019 05:00:00 5,3 3,0 -0,1 0,2 0,7 3,5 6 3 9 5 NE 11 0 0,0
22.03.2019 04:00:00 5,2 2,3 -0,1 0,2 0,7 3,5 8 5 11 6 NE 11 0 0,0
22.03.2019 03:00:00 6,1 2,9 -0,1 0,2 0,7 3,5 11 6 12 7 NNE 24 0 0,0
22.03.2019 02:00:00 6,1 2,3 -0,1 0,2 0,7 3,5 11 6 14 8 N 25 0 0,0
22.03.2019 01:00:00 6,5 2,8 -0,1 0,2 0,7 3,5 12 6 13 7 WNW 15 0 0,0
22.03.2019 00:00:00 6,5 2,9 -0,1 0,2 0,7 3,5 10 5 10 5 WNW 17 0 0,0
21.03.2019 23:00:00 6,3 3,0 -0,1 0,2 0,7 3,5 6 4 11 6 WSW 16 0 0,0
21.03.2019 22:00:00 6,2 3,0 -0,1 0,2 0,7 3,5 8 4 10 5 SSW 14 0 0,0
21.03.2019 21:00:00 5,6 3,2 -0,1 0,2 0,6 3,5 5 3 10 5 NNE 10 0 0,0
21.03.2019 20:00:00 6,1 3,2 -0,1 0,2 0,6 3,5 9 5 11 6 NNE 12 0 0,0
21.03.2019 19:00:00 6,8 3,0 -0,1 0,2 0,6 3,5 8 4 11 6 NE 17 1 0,0
21.03.2019 18:00:00 8,5 3,2 -0,1 0,2 0,7 3,5 8 4 12 7 NNE 25 60 0,0
21.03.2019 17:00:00 10,1 3,2 -0,2 0,2 0,7 3,5 6 3 10 5 N 24 60 0,0
21.03.2019 16:00:00 11,2 3,1 -0,2 0,2 0,7 3,5 4 2 11 6 NNE 28 60 0,0
21.03.2019 15:00:00 11,5 2,1 -0,1 0,2 0,7 3,5 7 4 11 6 ESE 26 60 0,0
21.03.2019 14:00:00 11,6 2,0 -0,1 0,2 0,7 3,5 3 2 14 7 SE 20 60 0,0
21.03.2019 13:00:00 10,5 1,3 -0,1 0,2 0,7 3,5 5 3 14 8 SW 21 60 0,0
21.03.2019 12:00:00 10,5 1,7 -0,1 0,2 0,7 3,5 3 2 13 7 W 21 60 0,0
21.03.2019 11:00:00 8,5 0,9 -0,1 0,2 0,7 3,5 8 4 16 9 WSW 11 60 0,0
21.03.2019 10:00:00 7,3 0,6 -0,1 0,2 0,7 3,5 8 4 14 8 SW 18 60 0,0
21.03.2019 09:00:00 5,9 -0,7 -0,1 0,2 0,7 3,5 8 4 13 7 WSW 17 60 0,0
21.03.2019 08:00:00 4,3 -2,1 -0,1 0,2 0,7 3,5 9 5 15 8 W 19 60 0,0
21.03.2019 07:00:00 3,1 -1,2 -0,1 0,2 0,7 3,5 8 4 13 7 NW 29 14 0,0
21.03.2019 06:00:00 2,4 -2,8 -0,1 0,2 0,7 3,5 11 6 16 9 NW 22 0 0,0
21.03.2019 05:00:00 2,5 -2,8 -0,1 0,2 0,7 3,5 15 8 17 9 NW 23 0 0,0
21.03.2019 04:00:00 2,1 -3,8 -0,1 0,2 0,7 3,5 13 7 16 9 W 24 0 0,0
21.03.2019 03:00:00 2,1 -4,5 -0,1 0,3 0,7 3,5 14 7 17 9 W 34 0 0,0
21.03.2019 02:00:00 2,7 -4,4 -0,1 0,3 0,6 3,5 14 7 22 12 WNW 31 0 0,0
21.03.2019 01:00:00 2,5 -5,1 -0,1 0,3 0,6 3,5 17 9 22 12 NW 34 0 0,0
21.03.2019 00:00:00 2,6 -5,8 -0,1 0,3 0,6 3,5 15 8 18 10 WNW 45 0 0,0
20.03.2019 23:00:00 2,7 -5,8 -0,1 0,3 0,6 3,5 14 8 21 11 NW 54 0 0,0
20.03.2019 22:00:00 2,0 -6,0 -0,1 0,3 0,6 3,5 13 7 16 9 WNW 62 0 0,0
20.03.2019 21:00:00 2,1 -5,5 -0,1 0,3 0,6 3,5 13 7 18 10 W 66 0 0,0
20.03.2019 20:00:00 2,4 -4,5 -0,1 0,3 0,6 3,5 16 8 19 10 WNW 51 0 0,0
20.03.2019 19:00:00 2,7 -4,3 -0,1 0,3 0,6 3,5 10 5 15 8 WNW 45 0 0,0
20.03.2019 18:00:00 4,6 -4,6 -0,1 0,3 0,6 3,5 8 4 21 11 WNW 65 60 0,0
20.03.2019 17:00:00 5,7 -5,6 -0,1 0,3 0,6 3,5 13 7 18 10 W 27 60 0,0
20.03.2019 16:00:00 5,9 -6,3 -0,1 0,3 0,6 3,5 11 6 18 10 W 16 60 0,0
20.03.2019 15:00:00 6,0 -5,8 -0,1 0,3 0,6 3,5 6 4 22 12 SW 14 60 0,0
20.03.2019 14:00:00 5,4 -5,1 -0,1 0,3 0,6 3,5 9 5 22 12 NW 12 60 0,0
20.03.2019 13:00:00 4,2 -5,6 -0,1 0,3 0,6 3,5 12 7 22 12 W 11 60 0,0
20.03.2019 12:00:00 3,5 -5,6 -0,1 0,3 0,6 3,5 13 7 23 12 WNW 13 60 0,0
20.03.2019 11:00:00 2,8 -4,6 -0,1 0,3 0,7 3,5 11 6 27 14 W 21 54 0,0
20.03.2019 10:00:00 1,8 -5,5 -0,1 0,3 0,7 3,5 12 7 24 13 W 18 51 0,0
20.03.2019 09:00:00 0,8 -3,2 -0,1 0,3 0,7 3,5 10 5 14 8 W 18 60 0,0
20.03.2019 08:00:00 -0,7 -3,4 -0,1 0,3 0,7 3,5 6 4 12 7 W 24 45 0,0
20.03.2019 07:00:00 -2,1 -3,7 -0,1 0,3 0,7 3,5 10 6 14 8 W 22 1 0,0
20.03.2019 06:00:00 -2,3 -3,7 -0,1 0,3 0,7 3,5 8 4 12 6 W 18 0 0,0
20.03.2019 05:00:00 -1,9 -3,4 -0,1 0,3 0,7 3,5 9 5 13 7 WNW 21 0 0,0
20.03.2019 04:00:00 -1,5 -3,2 -0,1 0,3 0,7 3,5 10 6 16 9 WNW 26 0 0,0
20.03.2019 03:00:00 -1,1 -3,1 -0,1 0,3 0,7 3,5 11 6 17 9 WNW 31 0 0,0
20.03.2019 02:00:00 -0,9 -3,1 -0,1 0,3 0,7 3,5 10 6 20 11 NW 32 0 0,0
20.03.2019 01:00:00 -0,9 -3,0 -0,1 0,3 0,7 3,5 10 5 19 10 NW 32 0 0,0
20.03.2019 00:00:00 -0,8 -3,0 -0,1 0,3 0,7 3,5 8 4 18 10 NW 32 0 0,0
19.03.2019 23:00:00 -0,8 -2,9 -0,1 0,3 0,7 3,5 11 6 18 10 NW 31 0 0,0
19.03.2019 22:00:00 -1,0 -2,8 -0,1 0,3 0,7 3,5 9 5 16 9 WNW 25 0 0,0
19.03.2019 21:00:00 -1,0 -2,8 -0,1 0,3 0,7 3,5 10 5 17 9 NW 27 0 0,0
19.03.2019 20:00:00 -0,8 -2,8 -0,1 0,3 0,7 3,5 9 5 20 11 NW 28 0 0,0
19.03.2019 19:00:00 -0,5 -3,1 -0,1 0,3 0,7 3,5 13 7 23 12 NW 33 0 0,0
19.03.2019 18:00:00 -0,3 -3,5 -0,1 0,3 0,7 3,5 12 6 32 17 NW 38 1 0,0
19.03.2019 17:00:00 -0,3 -2,6 -0,1 0,3 0,7 3,5 21 11 33 18 WNW 13 2 0,0
19.03.2019 16:00:00 0,7 -4,3 -0,1 0,3 0,7 3,5 16 9 33 18 NW 21 39 0,0
19.03.2019 15:00:00 0,8 -4,1 -0,1 0,3 0,7 3,5 14 8 35 19 NW 14 18 0,1
19.03.2019 14:00:00 0,1 -2,9 -0,1 0,3 0,7 3,5 21 11 36 20 WNW 16 17 0,0
19.03.2019 13:00:00 0,8 -5,5 -0,1 0,3 0,7 3,5 20 11 31 17 NW 25 31 0,0
19.03.2019 12:00:00 -0,4 -3,8 -0,1 0,3 0,7 3,5 14 8 36 19 NW 14 1 0,0
19.03.2019 11:00:00 -1,0 -3,1 -0,1 0,3 0,7 3,5 23 13 38 21 NW 10 5 0,2
19.03.2019 10:00:00 -1,4 -3,4 -0,1 0,3 0,7 3,5 14 8 27 15 WNW 18 1 0,0
19.03.2019 09:00:00 -1,8 -3,3 -0,1 0,3 0,7 3,5 16 9 29 16 WNW 18 14 0,0
19.03.2019 08:00:00 -2,1 -3,1 -0,1 0,3 0,7 3,5 13 7 34 18 WNW 11 2 0,0
19.03.2019 07:00:00 -2,4 -3,1 -0,1 0,3 0,7 3,5 18 10 33 18 WNW 8 0 0,0
19.03.2019 06:00:00 -2,4 -3,1 -0,1 0,3 0,7 3,5 13 7 40 22 NW 15 0 0,0
19.03.2019 05:00:00 -2,4 -3,2 -0,1 0,3 0,7 3,5 19 11 37 20 WNW 11 0 0,0
19.03.2019 04:00:00 -2,5 -3,3 -0,1 0,3 0,7 3,5 19 11 33 18 WNW 19 0 0,0
19.03.2019 03:00:00 -2,2 -3,1 -0,1 0,3 0,7 3,5 16 9 31 17 WNW 19 0 0,0
19.03.2019 02:00:00 -1,9 -3,0 -0,1 0,3 0,7 3,4 19 11 39 21 NW 23 0 0,0
19.03.2019 01:00:00 -1,7 -2,9 -0,1 0,3 0,7 3,4 24 13 44 24 WNW 22 0 0,0
19.03.2019 00:00:00 -1,7 -2,9 -0,1 0,3 0,7 3,4 16 9 32 17 WNW 21 0 0,0
18.03.2019 23:00:00 -1,6 -3,1 -0,1 0,3 0,7 3,4 16 9 36 19 WNW 37 0 0,0
18.03.2019 22:00:00 -1,6 -3,3 -0,1 0,3 0,7 3,4 21 11 34 19 WNW 43 0 0,0
18.03.2019 21:00:00 -1,7 -3,2 -0,1 0,3 0,7 3,4 16 9 32 17 W 43 0 0,0
18.03.2019 20:00:00 -1,5 -3,2 -0,1 0,3 0,7 3,4 16 9 33 18 W 44 0 0,0
18.03.2019 19:00:00 -1,1 -3,4 -0,1 0,3 0,7 3,4 18 10 43 23 WNW 70 0 0,0
18.03.2019 18:00:00 -0,7 -2,3 -0,1 0,3 0,7 3,4 22 12 39 21 W 47 46 0,0
18.03.2019 17:00:00 -0,3 -2,8 -0,1 0,3 0,7 3,4 22 12 54 29 W 19 23 0,9
18.03.2019 16:00:00 1,9 -4,1 -0,1 0,3 0,7 3,4 26 14 41 22 W 35 45 0,0
18.03.2019 15:00:00 1,6 -3,2 -0,1 0,3 0,7 3,4 24 13 45 24 WSW 16 23 0,1
18.03.2019 14:00:00 0,9 -3,8 -0,1 0,3 0,6 3,4 19 11 42 23 WSW 38 0 0,0
18.03.2019 13:00:00 0,7 -3,5 -0,1 0,3 0,6 3,4 23 13 42 23 W 19 2 0,0
18.03.2019 12:00:00 0,3 -3,6 -0,1 0,3 0,7 3,4 17 9 37 20 W 38 0 0,0
18.03.2019 11:00:00 0,3 -4,0 -0,1 0,3 0,6 3,4 27 14 45 24 WSW 36 12 0,0
18.03.2019 10:00:00 0,4 -3,8 -0,1 0,3 0,6 3,4 27 15 48 26 W 23 51 0,0
18.03.2019 09:00:00 -0,4 -4,0 -0,1 0,3 0,6 3,4 25 13 49 26 W 27 52 0,0
18.03.2019 08:00:00 -1,5 -4,1 -0,1 0,3 0,6 3,4 24 13 55 30 W 24 5 0,0
18.03.2019 07:00:00 -2,0 -4,3 -0,1 0,3 0,6 3,4 29 15 51 27 W 57 0 0,0
18.03.2019 06:00:00 -1,8 -3,9 -0,1 0,3 0,6 3,4 31 17 55 30 W 57 0 0,0
18.03.2019 05:00:00 -1,3 -3,3 -0,1 0,3 0,6 3,4 29 15 55 30 W 45 0 0,0
18.03.2019 04:00:00 -0,8 -2,2 -0,1 0,3 0,6 3,4 29 16 50 27 W 53 0 0,0
18.03.2019 03:00:00 -0,6 -1,7 -0,1 0,2 0,6 3,4 25 14 44 24 W 33 0 0,0
18.03.2019 02:00:00 -0,2 -0,8 -0,1 0,2 0,6 3,4 22 12 39 21 WSW 25 0 0,2
18.03.2019 01:00:00 0,1 -0,3 -0,1 0,2 0,6 3,4 19 10 37 20 W 3,1 0 0,0
18.03.2019 00:00:00 0,2 -0,3 -0,1 0,2 0,6 3,4 19 10 32 17 W 8 0 0,0
17.03.2019 23:00:00 0,3 -0,4 -0,1 0,2 0,6 3,4 19 10 33 18 W 18 0 0,0
17.03.2019 22:00:00 0,6 -0,3 -0,1 0,2 0,6 3,4 15 8 31 17 W 32 0 0,0
17.03.2019 21:00:00 0,6 -0,3 -0,2 0,2 0,7 3,4 17 9 40 22 WNW 51 0 0,0
17.03.2019 20:00:00 0,9 -0,8 -0,2 0,3 0,7 3,4 20 11 45 24 WNW 70 0 0,0
17.03.2019 19:00:00 0,5 -0,1 -0,2 0,3 0,7 3,4 25 14 49 26 W 62 0 0,3
17.03.2019 18:00:00 1,4 0,6 -0,2 0,3 0,7 3,4 32 17 59 32 W 3,4 0 0,2
17.03.2019 17:00:00 8,4 0,6 -0,2 0,3 0,7 3,4 34 19 87 47 WSW 58 8 0,0
17.03.2019 16:00:00 9,1 0,1 -0,2 0,2 0,6 3,4 34 18 59 32 WSW 41 19 0,0
17.03.2019 15:00:00 9,9 0,0 -0,2 0,2 0,6 3,4 33 18 58 31 WSW 23 58 0,0
17.03.2019 14:00:00 10,5 -1,2 -0,1 0,2 0,7 3,4 26 14 47 25 WSW 11 60 0,0
17.03.2019 13:00:00 9,9 -0,4 -0,1 0,2 0,7 3,4 23 12 44 24 SSW 10 60 0,0
17.03.2019 12:00:00 8,2 -0,6 -0,1 0,2 0,7 3,4 32 17 45 25 SSW 10 60 0,0
17.03.2019 11:00:00 5,7 1,4 -0,1 0,2 0,7 3,4 27 14 46 25 S 15 60 0,0
17.03.2019 10:00:00 5,9 0,1 -0,1 0,2 0,7 3,4 31 17 44 24 SSW 11 60 0,0
17.03.2019 09:00:00 4,5 1,6 -0,1 0,2 0,7 3,4 27 15 51 27 S 14 60 0,0
17.03.2019 08:00:00 4,3 -1,1 -0,1 0,2 0,7 3,4 32 17 46 25 SSW 11 58 0,0
17.03.2019 07:00:00 3,1 -1,0 -0,1 0,2 0,7 3,4 36 19 45 24 SSW 49 2 0,0
17.03.2019 06:00:00 1,0 0,7 -0,1 0,2 0,7 3,4 28 15 36 19 S 4,5 0 0,0
17.03.2019 05:00:00 2,2 -0,2 -0,1 0,2 0,6 3,4 28 15 45 24 SSW 70 0 0,0
17.03.2019 04:00:00 2,0 0,2 -0,1 0,2 0,6 3,4 23 12 39 21 SSW 70 0 0,0
17.03.2019 03:00:00 2,4 0,9 -0,1 0,2 0,6 3,3 17 9 29 16 SW 70 0 0,0
17.03.2019 02:00:00 2,2 1,0 -0,1 0,2 0,6 3,3 19 10 29 16 SW 64 0 0,0
17.03.2019 01:00:00 2,7 1,4 -0,1 0,2 0,6 3,3 21 12 38 21 WSW 68 0 0,0
17.03.2019 00:00:00 3,0 1,5 -0,1 0,2 0,6 3,3 23 13 46 25 WSW 61 0 0,0
16.03.2019 23:00:00 3,4 1,7 -0,1 0,2 0,6 3,3 29 16 53 28 W 53 0 0,0
16.03.2019 22:00:00 3,7 2,6 -0,1 0,2 0,6 3,3 32 17 49 27 W 48 0 0,0
16.03.2019 21:00:00 4,0 3,7 -0,1 0,2 0,7 3,3 26 14 42 23 WSW 14 0 0,0
16.03.2019 20:00:00 4,1 3,4 -0,1 0,2 0,7 3,3 26 14 45 25 WSW 38 0 0,0
16.03.2019 19:00:00 4,1 3,5 -0,1 0,2 0,7 3,3 24 13 50 27 WSW 31 0 0,0
16.03.2019 18:00:00 4,3 3,7 -0,1 0,2 0,7 3,3 29 16 48 26 WSW 38 0 0,0

tt = temperature
td = dewpoint
tt 5cm = temperature 5cm
tt -5cm = temperature -5cm
tt -20cm = temperature -20cm
tt -100cm = temperature -100cm
ff = wind speed
fx = gusts
dd = wind direction
vv = visibility
sd = sunshine duration
rr = precipitation

Next stations